sensor_id;sensor_type;location;lat;lon;timestamp;temperature;humidity
22471;DHT22;11402;51.374;6.594;2022-09-09T00:01:50;16.00;99.90
22471;DHT22;11402;51.374;6.594;2022-09-09T00:04:31;16.00;99.90
22471;DHT22;11402;51.374;6.594;2022-09-09T00:09:28;15.80;99.90
22471;DHT22;11402;51.374;6.594;2022-09-09T00:12:00;15.80;99.90
22471;DHT22;11402;51.374;6.594;2022-09-09T00:14:43;15.80;99.90
22471;DHT22;11402;51.374;6.594;2022-09-09T00:17:19;15.90;99.90
22471;DHT22;11402;51.374;6.594;2022-09-09T00:19:55;15.70;99.90
22471;DHT22;11402;51.374;6.594;2022-09-09T00:22:26;15.90;99.90
22471;DHT22;11402;51.374;6.594;2022-09-09T00:24:54;16.10;99.90
22471;DHT22;11402;51.374;6.594;2022-09-09T00:27:48;16.00;99.90
22471;DHT22;11402;51.374;6.594;2022-09-09T00:30:24;16.20;99.90
22471;DHT22;11402;51.374;6.594;2022-09-09T00:32:54;16.20;99.90
22471;DHT22;11402;51.374;6.594;2022-09-09T00:35:50;16.00;99.90
22471;DHT22;11402;51.374;6.594;2022-09-09T00:38:39;15.90;99.90
22471;DHT22;11402;51.374;6.594;2022-09-09T00:49:27;15.80;99.90
22471;DHT22;11402;51.374;6.594;2022-09-09T00:52:12;15.70;99.90
22471;DHT22;11402;51.374;6.594;2022-09-09T00:57:35;16.00;99.90
22471;DHT22;11402;51.374;6.594;2022-09-09T01:07:58;15.90;99.90
22471;DHT22;11402;51.374;6.594;2022-09-09T01:13:29;15.80;99.90
22471;DHT22;11402;51.374;6.594;2022-09-09T01:15:58;15.70;99.90
22471;DHT22;11402;51.374;6.594;2022-09-09T01:18:27;15.80;99.90
22471;DHT22;11402;51.374;6.594;2022-09-09T01:21:01;15.70;99.90
22471;DHT22;11402;51.374;6.594;2022-09-09T01:26:34;15.60;99.90
22471;DHT22;11402;51.374;6.594;2022-09-09T01:29:00;15.70;99.90
22471;DHT22;11402;51.374;6.594;2022-09-09T01:31:30;15.70;99.90
22471;DHT22;11402;51.374;6.594;2022-09-09T01:33:56;15.60;99.90
22471;DHT22;11402;51.374;6.594;2022-09-09T01:36:32;15.80;99.90
22471;DHT22;11402;51.374;6.594;2022-09-09T01:39:00;15.90;99.90
22471;DHT22;11402;51.374;6.594;2022-09-09T01:41:26;15.90;99.90
22471;DHT22;11402;51.374;6.594;2022-09-09T01:43:54;16.10;99.90
22471;DHT22;11402;51.374;6.594;2022-09-09T01:46:21;15.90;99.90
22471;DHT22;11402;51.374;6.594;2022-09-09T01:48:48;16.00;99.90
22471;DHT22;11402;51.374;6.594;2022-09-09T01:51:18;16.00;99.90
22471;DHT22;11402;51.374;6.594;2022-09-09T01:53:44;16.00;99.90
22471;DHT22;11402;51.374;6.594;2022-09-09T01:56:28;15.90;99.90
22471;DHT22;11402;51.374;6.594;2022-09-09T02:01:57;15.90;99.90
22471;DHT22;11402;51.374;6.594;2022-09-09T02:04:36;15.80;99.90
22471;DHT22;11402;51.374;6.594;2022-09-09T02:07:09;15.80;99.90
22471;DHT22;11402;51.374;6.594;2022-09-09T02:09:39;15.90;99.90
22471;DHT22;11402;51.374;6.594;2022-09-09T02:12:13;16.00;99.90
22471;DHT22;11402;51.374;6.594;2022-09-09T02:14:44;16.00;99.90
22471;DHT22;11402;51.374;6.594;2022-09-09T02:17:14;15.90;99.90
22471;DHT22;11402;51.374;6.594;2022-09-09T02:19:48;16.00;99.90
22471;DHT22;11402;51.374;6.594;2022-09-09T02:22:17;15.80;99.90
22471;DHT22;11402;51.374;6.594;2022-09-09T02:24:44;15.80;99.90
22471;DHT22;11402;51.374;6.594;2022-09-09T02:27:12;15.70;99.90
22471;DHT22;11402;51.374;6.594;2022-09-09T02:29:41;15.70;99.90
22471;DHT22;11402;51.374;6.594;2022-09-09T02:32:10;15.70;99.90
22471;DHT22;11402;51.374;6.594;2022-09-09T02:34:41;15.60;99.90
22471;DHT22;11402;51.374;6.594;2022-09-09T02:37:09;15.50;99.90
22471;DHT22;11402;51.374;6.594;2022-09-09T02:39:36;15.60;99.90
22471;DHT22;11402;51.374;6.594;2022-09-09T02:42:03;15.70;99.90
22471;DHT22;11402;51.374;6.594;2022-09-09T02:44:29;15.60;99.90
22471;DHT22;11402;51.374;6.594;2022-09-09T02:53:09;15.40;99.90
22471;DHT22;11402;51.374;6.594;2022-09-09T02:56:04;15.40;99.90
22471;DHT22;11402;51.374;6.594;2022-09-09T02:58:29;15.60;99.90
22471;DHT22;11402;51.374;6.594;2022-09-09T03:00:56;15.60;99.90
22471;DHT22;11402;51.374;6.594;2022-09-09T03:03:23;15.60;99.90
22471;DHT22;11402;51.374;6.594;2022-09-09T03:05:49;15.70;99.90
22471;DHT22;11402;51.374;6.594;2022-09-09T03:08:15;15.70;99.90
22471;DHT22;11402;51.374;6.594;2022-09-09T03:10:41;15.60;99.90
22471;DHT22;11402;51.374;6.594;2022-09-09T03:13:07;15.60;99.90
22471;DHT22;11402;51.374;6.594;2022-09-09T03:15:33;15.70;99.90
22471;DHT22;11402;51.374;6.594;2022-09-09T03:17:59;15.70;99.90
22471;DHT22;11402;51.374;6.594;2022-09-09T03:20:26;15.60;99.90
22471;DHT22;11402;51.374;6.594;2022-09-09T03:22:53;15.80;99.90
22471;DHT22;11402;51.374;6.594;2022-09-09T03:25:19;15.80;99.90
22471;DHT22;11402;51.374;6.594;2022-09-09T03:27:44;15.80;99.90
22471;DHT22;11402;51.374;6.594;2022-09-09T03:30:10;15.80;99.90
22471;DHT22;11402;51.374;6.594;2022-09-09T03:32:36;15.80;99.90
22471;DHT22;11402;51.374;6.594;2022-09-09T03:35:02;15.80;99.90
22471;DHT22;11402;51.374;6.594;2022-09-09T03:37:28;15.80;99.90
22471;DHT22;11402;51.374;6.594;2022-09-09T03:39:54;15.80;99.90
22471;DHT22;11402;51.374;6.594;2022-09-09T03:42:20;15.90;99.90
22471;DHT22;11402;51.374;6.594;2022-09-09T03:44:46;15.90;99.90
22471;DHT22;11402;51.374;6.594;2022-09-09T03:47:19;15.90;99.90
22471;DHT22;11402;51.374;6.594;2022-09-09T03:49:47;15.90;99.90
22471;DHT22;11402;51.374;6.594;2022-09-09T03:52:14;15.90;99.90
22471;DHT22;11402;51.374;6.594;2022-09-09T03:54:40;15.90;99.90
22471;DHT22;11402;51.374;6.594;2022-09-09T03:57:06;15.90;99.90
22471;DHT22;11402;51.374;6.594;2022-09-09T03:59:32;15.90;99.90
22471;DHT22;11402;51.374;6.594;2022-09-09T04:01:57;15.80;99.90
22471;DHT22;11402;51.374;6.594;2022-09-09T04:04:24;15.90;99.90
22471;DHT22;11402;51.374;6.594;2022-09-09T04:06:51;15.80;99.90
22471;DHT22;11402;51.374;6.594;2022-09-09T04:09:17;15.80;99.90
22471;DHT22;11402;51.374;6.594;2022-09-09T04:11:42;15.80;99.90
22471;DHT22;11402;51.374;6.594;2022-09-09T04:14:08;16.00;99.90
22471;DHT22;11402;51.374;6.594;2022-09-09T04:16:34;15.80;99.90
22471;DHT22;11402;51.374;6.594;2022-09-09T04:19:03;15.90;99.90
22471;DHT22;11402;51.374;6.594;2022-09-09T04:21:30;15.90;99.90
22471;DHT22;11402;51.374;6.594;2022-09-09T04:23:56;16.00;99.90
22471;DHT22;11402;51.374;6.594;2022-09-09T04:26:22;16.00;99.90
22471;DHT22;11402;51.374;6.594;2022-09-09T04:28:47;15.80;99.90
22471;DHT22;11402;51.374;6.594;2022-09-09T04:31:21;15.90;99.90
22471;DHT22;11402;51.374;6.594;2022-09-09T04:33:49;16.00;99.90
22471;DHT22;11402;51.374;6.594;2022-09-09T04:38:41;16.10;99.90
22471;DHT22;11402;51.374;6.594;2022-09-09T04:41:07;15.90;99.90
22471;DHT22;11402;51.374;6.594;2022-09-09T04:43:33;16.10;99.90
22471;DHT22;11402;51.374;6.594;2022-09-09T04:45:59;16.10;99.90
22471;DHT22;11402;51.374;6.594;2022-09-09T04:48:27;16.10;99.90
22471;DHT22;11402;51.374;6.594;2022-09-09T04:51:04;16.00;99.90
22471;DHT22;11402;51.374;6.594;2022-09-09T04:53:31;16.00;99.90
22471;DHT22;11402;51.374;6.594;2022-09-09T04:56:11;15.90;99.90
22471;DHT22;11402;51.374;6.594;2022-09-09T04:58:38;15.90;99.90
22471;DHT22;11402;51.374;6.594;2022-09-09T05:01:13;15.90;99.90
22471;DHT22;11402;51.374;6.594;2022-09-09T05:03:39;16.00;99.90
22471;DHT22;11402;51.374;6.594;2022-09-09T05:06:10;15.90;99.90
22471;DHT22;11402;51.374;6.594;2022-09-09T05:08:40;15.80;99.90
22471;DHT22;11402;51.374;6.594;2022-09-09T05:11:23;15.80;99.90
22471;DHT22;11402;51.374;6.594;2022-09-09T05:13:50;15.90;99.90
22471;DHT22;11402;51.374;6.594;2022-09-09T05:16:16;15.90;99.90
22471;DHT22;11402;51.374;6.594;2022-09-09T05:18:43;15.90;99.90
22471;DHT22;11402;51.374;6.594;2022-09-09T05:21:09;16.00;99.90
22471;DHT22;11402;51.374;6.594;2022-09-09T05:23:35;16.00;99.90
22471;DHT22;11402;51.374;6.594;2022-09-09T05:26:01;15.90;99.90
22471;DHT22;11402;51.374;6.594;2022-09-09T05:28:28;15.90;99.90
22471;DHT22;11402;51.374;6.594;2022-09-09T05:31:01;15.80;99.90
22471;DHT22;11402;51.374;6.594;2022-09-09T05:33:29;15.80;99.90
22471;DHT22;11402;51.374;6.594;2022-09-09T05:35:58;15.80;99.90
22471;DHT22;11402;51.374;6.594;2022-09-09T05:38:24;15.90;99.90
22471;DHT22;11402;51.374;6.594;2022-09-09T05:40:51;16.00;99.90
22471;DHT22;11402;51.374;6.594;2022-09-09T05:43:18;16.00;99.90
22471;DHT22;11402;51.374;6.594;2022-09-09T05:45:46;16.00;99.90
22471;DHT22;11402;51.374;6.594;2022-09-09T05:48:13;16.00;99.90
22471;DHT22;11402;51.374;6.594;2022-09-09T05:50:40;16.10;99.90
22471;DHT22;11402;51.374;6.594;2022-09-09T05:53:06;16.10;99.90
22471;DHT22;11402;51.374;6.594;2022-09-09T05:55:31;16.30;99.90
22471;DHT22;11402;51.374;6.594;2022-09-09T05:57:57;16.40;99.90
22471;DHT22;11402;51.374;6.594;2022-09-09T06:00:23;16.40;99.90
22471;DHT22;11402;51.374;6.594;2022-09-09T06:02:52;16.40;99.90
22471;DHT22;11402;51.374;6.594;2022-09-09T06:05:18;16.40;99.90
22471;DHT22;11402;51.374;6.594;2022-09-09T06:07:44;16.30;99.90
22471;DHT22;11402;51.374;6.594;2022-09-09T06:10:11;16.30;99.90
22471;DHT22;11402;51.374;6.594;2022-09-09T06:12:39;16.30;99.90
22471;DHT22;11402;51.374;6.594;2022-09-09T06:15:05;16.30;99.90
22471;DHT22;11402;51.374;6.594;2022-09-09T06:17:31;16.30;99.90
22471;DHT22;11402;51.374;6.594;2022-09-09T06:19:56;16.40;99.90
22471;DHT22;11402;51.374;6.594;2022-09-09T06:22:22;16.40;99.90
22471;DHT22;11402;51.374;6.594;2022-09-09T06:24:47;16.40;99.90
22471;DHT22;11402;51.374;6.594;2022-09-09T06:27:13;16.40;99.90
22471;DHT22;11402;51.374;6.594;2022-09-09T06:29:39;16.30;99.90
22471;DHT22;11402;51.374;6.594;2022-09-09T06:32:05;16.40;99.90
22471;DHT22;11402;51.374;6.594;2022-09-09T06:34:30;16.30;99.90
22471;DHT22;11402;51.374;6.594;2022-09-09T06:36:56;16.40;99.90
22471;DHT22;11402;51.374;6.594;2022-09-09T06:39:23;16.60;99.90
22471;DHT22;11402;51.374;6.594;2022-09-09T06:41:49;16.60;99.90
22471;DHT22;11402;51.374;6.594;2022-09-09T06:44:18;16.70;99.90
22471;DHT22;11402;51.374;6.594;2022-09-09T06:46:44;16.70;99.90
22471;DHT22;11402;51.374;6.594;2022-09-09T06:49:12;16.80;99.90
22471;DHT22;11402;51.374;6.594;2022-09-09T06:51:38;16.90;99.90
22471;DHT22;11402;51.374;6.594;2022-09-09T06:54:10;17.00;99.90
22471;DHT22;11402;51.374;6.594;2022-09-09T06:56:37;17.10;99.90
22471;DHT22;11402;51.374;6.594;2022-09-09T06:59:08;17.20;99.90
22471;DHT22;11402;51.374;6.594;2022-09-09T07:01:36;17.30;99.90
22471;DHT22;11402;51.374;6.594;2022-09-09T07:04:03;17.40;99.90
22471;DHT22;11402;51.374;6.594;2022-09-09T07:06:31;17.40;99.90
22471;DHT22;11402;51.374;6.594;2022-09-09T07:09:00;17.50;99.90
22471;DHT22;11402;51.374;6.594;2022-09-09T07:11:29;17.50;99.90
22471;DHT22;11402;51.374;6.594;2022-09-09T07:13:55;17.50;99.90
22471;DHT22;11402;51.374;6.594;2022-09-09T07:16:22;17.50;99.90
22471;DHT22;11402;51.374;6.594;2022-09-09T07:18:51;17.60;99.90
22471;DHT22;11402;51.374;6.594;2022-09-09T07:21:18;17.70;99.90
22471;DHT22;11402;51.374;6.594;2022-09-09T07:23:44;17.80;99.90
22471;DHT22;11402;51.374;6.594;2022-09-09T07:26:12;17.80;99.90
22471;DHT22;11402;51.374;6.594;2022-09-09T07:28:39;17.80;99.90
22471;DHT22;11402;51.374;6.594;2022-09-09T07:31:05;17.80;99.90
22471;DHT22;11402;51.374;6.594;2022-09-09T07:33:33;17.80;99.90
22471;DHT22;11402;51.374;6.594;2022-09-09T07:36:10;17.90;99.90
22471;DHT22;11402;51.374;6.594;2022-09-09T07:38:46;17.90;99.90
22471;DHT22;11402;51.374;6.594;2022-09-09T07:41:20;17.90;99.90
22471;DHT22;11402;51.374;6.594;2022-09-09T07:43:47;17.90;99.90
22471;DHT22;11402;51.374;6.594;2022-09-09T07:46:14;18.00;99.90
22471;DHT22;11402;51.374;6.594;2022-09-09T07:48:48;17.90;99.90
22471;DHT22;11402;51.374;6.594;2022-09-09T07:51:18;17.90;99.90
22471;DHT22;11402;51.374;6.594;2022-09-09T07:53:45;17.70;99.90
22471;DHT22;11402;51.374;6.594;2022-09-09T07:56:14;17.70;99.90
22471;DHT22;11402;51.374;6.594;2022-09-09T07:58:42;17.90;99.90
22471;DHT22;11402;51.374;6.594;2022-09-09T08:01:12;18.00;99.90
22471;DHT22;11402;51.374;6.594;2022-09-09T08:03:39;18.00;99.90
22471;DHT22;11402;51.374;6.594;2022-09-09T08:06:06;18.00;99.90
22471;DHT22;11402;51.374;6.594;2022-09-09T08:08:34;18.10;99.90
22471;DHT22;11402;51.374;6.594;2022-09-09T08:11:09;18.10;99.90
22471;DHT22;11402;51.374;6.594;2022-09-09T08:13:36;18.20;99.90
22471;DHT22;11402;51.374;6.594;2022-09-09T08:16:29;18.30;99.90
22471;DHT22;11402;51.374;6.594;2022-09-09T08:18:55;18.60;99.90
22471;DHT22;11402;51.374;6.594;2022-09-09T08:21:26;18.60;99.90
22471;DHT22;11402;51.374;6.594;2022-09-09T08:23:54;18.80;99.90
22471;DHT22;11402;51.374;6.594;2022-09-09T08:26:31;18.90;99.90
22471;DHT22;11402;51.374;6.594;2022-09-09T08:28:58;19.10;99.90
22471;DHT22;11402;51.374;6.594;2022-09-09T08:31:27;19.10;99.90
22471;DHT22;11402;51.374;6.594;2022-09-09T08:33:56;19.20;99.90
22471;DHT22;11402;51.374;6.594;2022-09-09T08:36:24;19.30;99.90
22471;DHT22;11402;51.374;6.594;2022-09-09T08:38:53;19.20;99.90
22471;DHT22;11402;51.374;6.594;2022-09-09T08:55:55;18.90;99.90
22471;DHT22;11402;51.374;6.594;2022-09-09T08:58:31;18.90;99.90
22471;DHT22;11402;51.374;6.594;2022-09-09T09:06:49;19.00;99.90
22471;DHT22;11402;51.374;6.594;2022-09-09T09:09:30;18.90;99.90
22471;DHT22;11402;51.374;6.594;2022-09-09T09:12:00;18.90;99.90
22471;DHT22;11402;51.374;6.594;2022-09-09T09:14:31;18.80;99.90
22471;DHT22;11402;51.374;6.594;2022-09-09T09:17:10;18.80;99.90
22471;DHT22;11402;51.374;6.594;2022-09-09T09:19:39;18.90;99.90
22471;DHT22;11402;51.374;6.594;2022-09-09T09:22:21;18.80;99.90
22471;DHT22;11402;51.374;6.594;2022-09-09T09:24:56;18.90;99.90
22471;DHT22;11402;51.374;6.594;2022-09-09T09:27:33;18.90;99.90
22471;DHT22;11402;51.374;6.594;2022-09-09T09:30:02;18.80;99.90
22471;DHT22;11402;51.374;6.594;2022-09-09T09:32:32;19.00;99.90
22471;DHT22;11402;51.374;6.594;2022-09-09T09:34:59;19.00;99.90
22471;DHT22;11402;51.374;6.594;2022-09-09T09:37:32;19.10;99.90
22471;DHT22;11402;51.374;6.594;2022-09-09T09:40:10;19.30;99.90
22471;DHT22;11402;51.374;6.594;2022-09-09T09:42:35;19.60;99.90
22471;DHT22;11402;51.374;6.594;2022-09-09T09:45:34;19.80;99.90
22471;DHT22;11402;51.374;6.594;2022-09-09T09:48:03;19.90;99.90
22471;DHT22;11402;51.374;6.594;2022-09-09T09:50:31;19.90;99.90
22471;DHT22;11402;51.374;6.594;2022-09-09T09:53:17;19.90;99.90
22471;DHT22;11402;51.374;6.594;2022-09-09T09:55:55;19.90;99.90
22471;DHT22;11402;51.374;6.594;2022-09-09T09:58:21;20.00;99.90
22471;DHT22;11402;51.374;6.594;2022-09-09T10:00:51;20.00;99.90
22471;DHT22;11402;51.374;6.594;2022-09-09T10:05:51;20.20;99.90
22471;DHT22;11402;51.374;6.594;2022-09-09T10:08:17;20.30;99.90
22471;DHT22;11402;51.374;6.594;2022-09-09T10:16:45;20.30;99.90
22471;DHT22;11402;51.374;6.594;2022-09-09T10:19:37;20.10;99.90
22471;DHT22;11402;51.374;6.594;2022-09-09T10:22:25;20.00;99.90
22471;DHT22;11402;51.374;6.594;2022-09-09T10:30:20;19.70;99.90
22471;DHT22;11402;51.374;6.594;2022-09-09T10:36:02;19.80;99.90
22471;DHT22;11402;51.374;6.594;2022-09-09T10:41:16;19.80;99.90
22471;DHT22;11402;51.374;6.594;2022-09-09T10:43:51;20.00;99.90
22471;DHT22;11402;51.374;6.594;2022-09-09T10:52:00;20.50;99.90
22471;DHT22;11402;51.374;6.594;2022-09-09T10:57:24;20.60;99.90
22471;DHT22;11402;51.374;6.594;2022-09-09T10:59:53;20.50;99.90
22471;DHT22;11402;51.374;6.594;2022-09-09T11:02:30;20.20;99.90
22471;DHT22;11402;51.374;6.594;2022-09-09T11:07:41;20.00;99.90
22471;DHT22;11402;51.374;6.594;2022-09-09T11:10:39;20.00;99.90
22471;DHT22;11402;51.374;6.594;2022-09-09T11:13:24;20.10;99.90
22471;DHT22;11402;51.374;6.594;2022-09-09T11:15:57;20.30;99.90
22471;DHT22;11402;51.374;6.594;2022-09-09T11:18:29;20.40;99.90
22471;DHT22;11402;51.374;6.594;2022-09-09T11:20:59;20.50;99.90
22471;DHT22;11402;51.374;6.594;2022-09-09T11:23:42;20.60;99.90
22471;DHT22;11402;51.374;6.594;2022-09-09T11:26:15;20.60;99.90
22471;DHT22;11402;51.374;6.594;2022-09-09T11:29:05;20.60;99.90
22471;DHT22;11402;51.374;6.594;2022-09-09T11:31:55;20.60;99.90
22471;DHT22;11402;51.374;6.594;2022-09-09T11:35:02;20.50;99.90
22471;DHT22;11402;51.374;6.594;2022-09-09T11:40:38;20.30;99.90
22471;DHT22;11402;51.374;6.594;2022-09-09T11:43:13;20.30;99.90
22471;DHT22;11402;51.374;6.594;2022-09-09T11:45:41;20.50;99.90
22471;DHT22;11402;51.374;6.594;2022-09-09T11:48:29;20.80;99.90
22471;DHT22;11402;51.374;6.594;2022-09-09T11:51:05;21.00;99.90
22471;DHT22;11402;51.374;6.594;2022-09-09T11:53:34;21.00;99.90
22471;DHT22;11402;51.374;6.594;2022-09-09T11:59:16;20.70;99.90
22471;DHT22;11402;51.374;6.594;2022-09-09T12:01:45;20.90;99.90
22471;DHT22;11402;51.374;6.594;2022-09-09T12:04:36;21.00;99.90
22471;DHT22;11402;51.374;6.594;2022-09-09T12:07:04;21.00;99.90
22471;DHT22;11402;51.374;6.594;2022-09-09T12:14:55;20.80;99.90
22471;DHT22;11402;51.374;6.594;2022-09-09T12:17:26;20.60;99.90
22471;DHT22;11402;51.374;6.594;2022-09-09T12:20:18;20.40;99.90
22471;DHT22;11402;51.374;6.594;2022-09-09T12:23:16;20.40;99.90
22471;DHT22;11402;51.374;6.594;2022-09-09T12:28:19;20.40;99.90
22471;DHT22;11402;51.374;6.594;2022-09-09T12:33:39;20.10;99.90
22471;DHT22;11402;51.374;6.594;2022-09-09T12:36:33;19.80;99.90
22471;DHT22;11402;51.374;6.594;2022-09-09T12:38:59;20.00;99.90
22471;DHT22;11402;51.374;6.594;2022-09-09T12:41:35;20.30;99.90
22471;DHT22;11402;51.374;6.594;2022-09-09T12:44:09;20.20;99.90
22471;DHT22;11402;51.374;6.594;2022-09-09T12:46:41;20.00;99.90
22471;DHT22;11402;51.374;6.594;2022-09-09T12:49:32;19.80;99.90
22471;DHT22;11402;51.374;6.594;2022-09-09T12:54:44;19.40;99.90
22471;DHT22;11402;51.374;6.594;2022-09-09T12:57:12;19.60;99.90
22471;DHT22;11402;51.374;6.594;2022-09-09T12:59:41;19.70;99.90
22471;DHT22;11402;51.374;6.594;2022-09-09T13:02:23;19.70;99.90
22471;DHT22;11402;51.374;6.594;2022-09-09T13:04:50;19.60;99.90
22471;DHT22;11402;51.374;6.594;2022-09-09T13:07:18;19.60;99.90
22471;DHT22;11402;51.374;6.594;2022-09-09T13:09:45;19.50;99.90
22471;DHT22;11402;51.374;6.594;2022-09-09T13:12:23;19.70;99.90
22471;DHT22;11402;51.374;6.594;2022-09-09T13:14:51;19.80;99.90
22471;DHT22;11402;51.374;6.594;2022-09-09T13:17:21;20.00;99.90
22471;DHT22;11402;51.374;6.594;2022-09-09T13:19:48;20.10;99.90
22471;DHT22;11402;51.374;6.594;2022-09-09T13:22:30;20.30;99.90
22471;DHT22;11402;51.374;6.594;2022-09-09T13:27:32;20.20;99.90
22471;DHT22;11402;51.374;6.594;2022-09-09T13:30:00;20.20;99.90
22471;DHT22;11402;51.374;6.594;2022-09-09T13:32:26;20.30;99.90
22471;DHT22;11402;51.374;6.594;2022-09-09T13:35:00;20.40;99.90
22471;DHT22;11402;51.374;6.594;2022-09-09T13:37:33;20.50;99.90
22471;DHT22;11402;51.374;6.594;2022-09-09T13:39:59;20.40;99.90
22471;DHT22;11402;51.374;6.594;2022-09-09T13:42:31;20.50;99.90
22471;DHT22;11402;51.374;6.594;2022-09-09T13:44:58;20.60;99.90
22471;DHT22;11402;51.374;6.594;2022-09-09T13:47:31;20.70;99.90
22471;DHT22;11402;51.374;6.594;2022-09-09T13:49:58;20.80;99.90
22471;DHT22;11402;51.374;6.594;2022-09-09T13:52:24;20.80;99.90
22471;DHT22;11402;51.374;6.594;2022-09-09T13:54:52;20.70;99.90
22471;DHT22;11402;51.374;6.594;2022-09-09T13:57:22;20.80;99.90
22471;DHT22;11402;51.374;6.594;2022-09-09T13:59:48;20.70;99.90
22471;DHT22;11402;51.374;6.594;2022-09-09T14:02:15;20.60;99.90
22471;DHT22;11402;51.374;6.594;2022-09-09T14:04:41;20.50;99.90
22471;DHT22;11402;51.374;6.594;2022-09-09T14:07:12;20.50;99.90
22471;DHT22;11402;51.374;6.594;2022-09-09T14:09:38;20.50;99.90
22471;DHT22;11402;51.374;6.594;2022-09-09T14:12:05;20.60;99.90
22471;DHT22;11402;51.374;6.594;2022-09-09T14:14:30;20.60;99.90
22471;DHT22;11402;51.374;6.594;2022-09-09T14:16:56;20.50;99.90
22471;DHT22;11402;51.374;6.594;2022-09-09T14:19:21;20.30;99.90
22471;DHT22;11402;51.374;6.594;2022-09-09T14:21:47;20.20;99.90
22471;DHT22;11402;51.374;6.594;2022-09-09T14:24:13;19.90;99.90
22471;DHT22;11402;51.374;6.594;2022-09-09T14:26:39;19.40;99.90
22471;DHT22;11402;51.374;6.594;2022-09-09T14:29:05;19.10;99.90
22471;DHT22;11402;51.374;6.594;2022-09-09T14:31:31;18.90;99.90
22471;DHT22;11402;51.374;6.594;2022-09-09T14:33:56;18.60;99.90
22471;DHT22;11402;51.374;6.594;2022-09-09T14:36:22;18.50;99.90
22471;DHT22;11402;51.374;6.594;2022-09-09T14:38:49;18.40;99.90
22471;DHT22;11402;51.374;6.594;2022-09-09T14:41:16;18.30;99.90
22471;DHT22;11402;51.374;6.594;2022-09-09T14:43:42;18.30;99.90
22471;DHT22;11402;51.374;6.594;2022-09-09T14:46:10;18.20;99.90
22471;DHT22;11402;51.374;6.594;2022-09-09T14:48:36;18.00;99.90
22471;DHT22;11402;51.374;6.594;2022-09-09T14:51:10;17.50;99.90
22471;DHT22;11402;51.374;6.594;2022-09-09T14:53:36;17.40;99.90
22471;DHT22;11402;51.374;6.594;2022-09-09T14:56:11;17.20;99.90
22471;DHT22;11402;51.374;6.594;2022-09-09T14:58:37;17.40;99.90
22471;DHT22;11402;51.374;6.594;2022-09-09T15:01:14;17.20;99.90
22471;DHT22;11402;51.374;6.594;2022-09-09T15:03:41;17.00;99.90
22471;DHT22;11402;51.374;6.594;2022-09-09T15:06:12;17.30;99.90
22471;DHT22;11402;51.374;6.594;2022-09-09T15:08:40;17.30;99.90
22471;DHT22;11402;51.374;6.594;2022-09-09T15:11:07;17.30;99.90
22471;DHT22;11402;51.374;6.594;2022-09-09T15:13:34;17.40;99.90
22471;DHT22;11402;51.374;6.594;2022-09-09T15:16:11;17.60;99.90
22471;DHT22;11402;51.374;6.594;2022-09-09T15:18:38;17.90;99.90
22471;DHT22;11402;51.374;6.594;2022-09-09T15:21:08;17.90;99.90
22471;DHT22;11402;51.374;6.594;2022-09-09T15:23:35;18.10;99.90
22471;DHT22;11402;51.374;6.594;2022-09-09T15:26:01;18.30;99.90
22471;DHT22;11402;51.374;6.594;2022-09-09T15:28:27;18.60;99.90
22471;DHT22;11402;51.374;6.594;2022-09-09T15:30:54;18.60;99.90
22471;DHT22;11402;51.374;6.594;2022-09-09T15:33:21;18.60;99.90
22471;DHT22;11402;51.374;6.594;2022-09-09T15:35:46;18.30;99.90
22471;DHT22;11402;51.374;6.594;2022-09-09T15:38:12;18.50;99.90
22471;DHT22;11402;51.374;6.594;2022-09-09T15:40:39;18.50;99.90
22471;DHT22;11402;51.374;6.594;2022-09-09T15:43:06;18.60;99.90
22471;DHT22;11402;51.374;6.594;2022-09-09T15:45:32;18.60;99.90
22471;DHT22;11402;51.374;6.594;2022-09-09T15:47:59;18.60;99.90
22471;DHT22;11402;51.374;6.594;2022-09-09T15:50:25;18.70;99.90
22471;DHT22;11402;51.374;6.594;2022-09-09T15:52:51;18.70;99.90
22471;DHT22;11402;51.374;6.594;2022-09-09T15:55:18;18.80;99.90
22471;DHT22;11402;51.374;6.594;2022-09-09T15:57:45;18.80;99.90
22471;DHT22;11402;51.374;6.594;2022-09-09T16:00:11;19.00;99.90
22471;DHT22;11402;51.374;6.594;2022-09-09T16:02:38;19.10;99.90
22471;DHT22;11402;51.374;6.594;2022-09-09T16:05:04;19.30;99.90
22471;DHT22;11402;51.374;6.594;2022-09-09T16:07:30;19.40;99.90
22471;DHT22;11402;51.374;6.594;2022-09-09T16:09:56;19.20;99.90
22471;DHT22;11402;51.374;6.594;2022-09-09T16:12:21;19.20;99.90
22471;DHT22;11402;51.374;6.594;2022-09-09T16:14:47;19.30;99.90
22471;DHT22;11402;51.374;6.594;2022-09-09T16:17:13;19.30;99.90
22471;DHT22;11402;51.374;6.594;2022-09-09T16:19:39;19.10;99.90
22471;DHT22;11402;51.374;6.594;2022-09-09T16:22:05;19.10;99.90
22471;DHT22;11402;51.374;6.594;2022-09-09T16:24:32;19.10;99.90
22471;DHT22;11402;51.374;6.594;2022-09-09T16:26:58;19.00;99.90
22471;DHT22;11402;51.374;6.594;2022-09-09T16:29:23;19.10;99.90
22471;DHT22;11402;51.374;6.594;2022-09-09T16:31:53;19.10;99.90
22471;DHT22;11402;51.374;6.594;2022-09-09T16:34:19;19.00;99.90
22471;DHT22;11402;51.374;6.594;2022-09-09T16:36:46;19.00;99.90
22471;DHT22;11402;51.374;6.594;2022-09-09T16:39:14;18.90;99.90
22471;DHT22;11402;51.374;6.594;2022-09-09T16:41:42;18.80;99.90
22471;DHT22;11402;51.374;6.594;2022-09-09T16:44:11;18.90;99.90
22471;DHT22;11402;51.374;6.594;2022-09-09T16:46:39;18.70;99.90
22471;DHT22;11402;51.374;6.594;2022-09-09T16:49:08;18.80;99.90
22471;DHT22;11402;51.374;6.594;2022-09-09T16:51:37;18.80;99.90
22471;DHT22;11402;51.374;6.594;2022-09-09T16:54:04;18.70;99.90
22471;DHT22;11402;51.374;6.594;2022-09-09T16:56:33;18.80;99.90
22471;DHT22;11402;51.374;6.594;2022-09-09T16:59:01;18.60;99.90
22471;DHT22;11402;51.374;6.594;2022-09-09T17:01:33;18.50;99.90
22471;DHT22;11402;51.374;6.594;2022-09-09T17:04:01;18.60;99.90
22471;DHT22;11402;51.374;6.594;2022-09-09T17:06:29;18.50;99.90
22471;DHT22;11402;51.374;6.594;2022-09-09T17:08:56;18.40;99.90
22471;DHT22;11402;51.374;6.594;2022-09-09T17:11:22;18.30;99.90
22471;DHT22;11402;51.374;6.594;2022-09-09T17:13:49;18.20;99.90
22471;DHT22;11402;51.374;6.594;2022-09-09T17:16:17;18.10;99.90
22471;DHT22;11402;51.374;6.594;2022-09-09T17:18:43;18.20;99.90
22471;DHT22;11402;51.374;6.594;2022-09-09T17:21:12;18.40;99.90
22471;DHT22;11402;51.374;6.594;2022-09-09T17:23:40;18.50;99.90
22471;DHT22;11402;51.374;6.594;2022-09-09T17:26:08;18.40;99.90
22471;DHT22;11402;51.374;6.594;2022-09-09T17:28:35;18.40;99.90
22471;DHT22;11402;51.374;6.594;2022-09-09T17:31:01;18.20;99.90
22471;DHT22;11402;51.374;6.594;2022-09-09T17:33:35;18.20;99.90
22471;DHT22;11402;51.374;6.594;2022-09-09T17:36:02;18.20;99.90
22471;DHT22;11402;51.374;6.594;2022-09-09T17:38:28;18.30;99.90
22471;DHT22;11402;51.374;6.594;2022-09-09T17:41:05;18.30;99.90